Hemingford, Nebraska
Current Conditions -  °F | °C
As of 1:53 PM on Friday 19 Dec 2014 (Local Time) from KAIA Reporting Station
Clear Clear  
Wind Chill: 27°   Ceiling: Unl
Heat Index: 35°   Visibility: 10mi
Dew Point: 25°   Wind: 12mph
Humidity: 67%   Direction: 280°W
Pressure: 29.95"   Gusts: NA
Location:  42.32°N, 103.07°W
Report Text: KAIA 192053Z AUTO 28010KT 10SM CLR 02/M04 A2995 RMK AO2 SLP186 T00171039 56017
Loading
Personal Weather Stations






























Interactive Weather Map New forecast layout! Learn more

10-Day Weather Forecast

Advertisements
Track Severe Weather on mobile